createdAt,value
2022-10-24T00:01:02.754Z,98527.00
2022-10-24T00:02:41.988Z,98526.00
2022-10-24T00:04:19.029Z,98522.00
2022-10-24T00:05:55.459Z,98519.00
2022-10-24T00:07:33.045Z,98522.00
2022-10-24T00:09:11.104Z,98515.00
2022-10-24T00:10:53.315Z,98517.00
2022-10-24T00:12:31.671Z,98525.00
2022-10-24T00:14:09.133Z,98514.00
2022-10-24T00:15:49.387Z,98512.00
2022-10-24T00:17:26.467Z,98518.00
2022-10-24T00:19:11.095Z,98515.00
2022-10-24T00:20:47.432Z,98515.00
2022-10-24T00:22:25.690Z,98505.00
2022-10-24T00:24:04.584Z,98509.00
2022-10-24T00:25:44.968Z,98502.00
2022-10-24T00:27:22.729Z,98507.00
2022-10-24T00:29:03.016Z,98506.00
2022-10-24T00:30:40.493Z,98507.00
2022-10-24T00:32:23.422Z,98501.00
2022-10-24T00:34:01.542Z,98501.00
2022-10-24T00:35:41.470Z,98496.00
2022-10-24T00:37:24.983Z,98496.00
2022-10-24T00:39:02.747Z,98487.00
2022-10-24T00:40:40.363Z,98493.00
2022-10-24T00:42:18.433Z,98489.00
2022-10-24T00:44:15.971Z,98488.00
2022-10-24T00:45:59.009Z,98483.00
2022-10-24T00:47:39.384Z,98487.00
2022-10-24T00:49:24.094Z,98484.00
2022-10-24T00:51:08.190Z,98493.00
2022-10-24T00:52:51.554Z,98490.00
2022-10-24T00:54:30.317Z,98485.00
2022-10-24T00:56:14.192Z,98491.00
2022-10-24T00:58:02.409Z,98474.00
2022-10-24T00:59:44.656Z,98483.00
2022-10-24T01:01:23.572Z,98473.00
2022-10-24T01:02:58.254Z,98470.00
2022-10-24T01:04:34.015Z,98469.00
2022-10-24T01:06:39.973Z,98473.00
2022-10-24T01:08:30.126Z,98469.00
2022-10-24T01:12:33.118Z,98464.00
2022-10-24T01:14:27.100Z,98473.00
2022-10-24T01:16:14.096Z,98464.00
2022-10-24T01:18:01.974Z,98473.00
2022-10-24T01:20:26.104Z,98474.00
2022-10-24T01:22:14.064Z,98475.00
2022-10-24T01:24:37.700Z,98478.00
2022-10-24T01:26:36.205Z,98484.00
2022-10-24T01:28:15.574Z,98479.00
2022-10-24T01:30:05.172Z,98473.00
2022-10-24T01:31:48.845Z,98477.00
2022-10-24T01:33:31.664Z,98468.00
2022-10-24T01:35:18.415Z,98458.00
2022-10-24T01:37:00.249Z,98454.00
2022-10-24T01:38:41.809Z,98467.00
2022-10-24T01:40:20.952Z,98458.00
2022-10-24T01:42:02.704Z,98445.00
2022-10-24T01:43:42.775Z,98446.00
2022-10-24T01:45:25.209Z,98443.00
2022-10-24T01:47:05.009Z,98436.00
2022-10-24T01:48:49.069Z,98442.00
2022-10-24T01:50:27.652Z,98435.00
2022-10-24T01:52:07.000Z,98434.00
2022-10-24T01:53:43.445Z,98432.00
2022-10-24T01:55:16.847Z,98425.00
2022-10-24T01:56:50.815Z,98432.00
2022-10-24T01:58:24.359Z,98424.00
2022-10-24T01:59:58.019Z,98422.00
2022-10-24T02:01:34.281Z,98427.00
2022-10-24T02:03:22.399Z,98422.00
2022-10-24T02:05:01.400Z,98423.00
2022-10-24T02:06:41.344Z,98411.00
2022-10-24T02:08:25.697Z,98420.00
2022-10-24T02:10:06.373Z,98416.00
2022-10-24T02:11:41.678Z,98418.00
2022-10-24T02:13:28.810Z,98419.00
2022-10-24T02:15:17.547Z,98412.00
2022-10-24T02:16:55.116Z,98412.00
2022-10-24T02:18:35.800Z,98420.00
2022-10-24T02:20:15.997Z,98412.00
2022-10-24T02:22:06.431Z,98400.00
2022-10-24T02:23:55.273Z,98403.00
2022-10-24T02:25:39.164Z,98406.00
2022-10-24T02:27:24.096Z,98407.00
2022-10-24T02:29:07.432Z,98403.00
2022-10-24T02:30:54.754Z,98403.00
2022-10-24T02:32:40.373Z,98395.00
2022-10-24T02:34:24.395Z,98399.00
2022-10-24T02:36:09.649Z,98402.00
2022-10-24T02:37:58.712Z,98405.00
2022-10-24T02:39:38.073Z,98401.00
2022-10-24T02:41:25.461Z,98393.00
2022-10-24T02:43:07.157Z,98399.00
2022-10-24T02:44:47.884Z,98396.00
2022-10-24T02:46:27.341Z,98392.00
2022-10-24T02:48:11.179Z,98399.00
2022-10-24T02:49:49.728Z,98396.00
2022-10-24T02:51:32.858Z,98391.00
2022-10-24T02:53:16.208Z,98394.00
2022-10-24T02:54:55.511Z,98391.00
2022-10-24T02:56:34.985Z,98391.00
2022-10-24T02:58:12.882Z,98390.00
2022-10-24T02:59:53.836Z,98387.00
2022-10-24T03:01:36.716Z,98387.00
2022-10-24T03:03:16.384Z,98389.00
2022-10-24T03:04:54.353Z,98399.00
2022-10-24T03:06:34.660Z,98395.00
2022-10-24T03:08:11.859Z,98396.00
2022-10-24T03:09:49.944Z,98398.00
2022-10-24T03:11:25.868Z,98396.00
2022-10-24T03:13:13.568Z,98394.00
2022-10-24T03:14:51.510Z,98400.00
2022-10-24T03:16:32.928Z,98399.00
2022-10-24T03:18:10.421Z,98398.00
2022-10-24T03:19:49.880Z,98396.00
2022-10-24T03:21:40.802Z,98386.00
2022-10-24T03:23:20.344Z,98383.00
2022-10-24T03:24:58.866Z,98385.00
2022-10-24T03:26:36.414Z,98380.00
2022-10-24T03:28:15.443Z,98383.00
2022-10-24T03:29:54.693Z,98392.00
2022-10-24T03:31:34.148Z,98379.00
2022-10-24T03:33:10.830Z,98382.00
2022-10-24T03:34:51.510Z,98380.00
2022-10-24T03:36:30.442Z,98385.00
2022-10-24T03:38:09.252Z,98364.00
2022-10-24T03:39:47.528Z,98371.00
2022-10-24T03:41:25.707Z,98368.00
2022-10-24T03:43:03.563Z,98375.00
2022-10-24T03:44:41.937Z,98385.00
2022-10-24T03:46:22.955Z,98381.00
2022-10-24T03:48:02.039Z,98374.00
2022-10-24T03:49:40.376Z,98380.00
2022-10-24T03:51:19.677Z,98370.00
2022-10-24T03:53:07.741Z,98364.00
2022-10-24T03:54:45.119Z,98361.00
2022-10-24T03:56:22.953Z,98365.00
2022-10-24T03:58:00.596Z,98367.00
2022-10-24T03:59:38.600Z,98361.00
2022-10-24T04:01:20.420Z,98366.00
2022-10-24T04:02:58.734Z,98375.00
2022-10-24T04:04:37.186Z,98372.00
2022-10-24T04:06:15.318Z,98372.00
2022-10-24T04:07:54.007Z,98374.00
2022-10-24T04:09:32.569Z,98376.00
2022-10-24T04:11:10.747Z,98375.00
2022-10-24T04:12:51.539Z,98370.00
2022-10-24T04:14:29.485Z,98372.00
2022-10-24T04:16:07.950Z,98378.00
2022-10-24T04:17:46.196Z,98385.00
2022-10-24T04:19:25.214Z,98383.00
2022-10-24T04:21:03.125Z,98386.00
2022-10-24T04:22:41.082Z,98382.00
2022-10-24T04:24:21.442Z,98393.00
2022-10-24T04:25:59.449Z,98392.00
2022-10-24T04:27:42.659Z,98385.00
2022-10-24T04:29:22.080Z,98394.00
2022-10-24T04:31:00.427Z,98397.00
2022-10-24T04:32:39.057Z,98395.00
2022-10-24T04:34:20.205Z,98388.00
2022-10-24T04:36:02.388Z,98385.00
2022-10-24T04:37:43.316Z,98379.00
2022-10-24T04:39:22.575Z,98373.00
2022-10-24T04:41:01.527Z,98375.00
2022-10-24T04:42:41.734Z,98376.00
2022-10-24T04:44:20.627Z,98373.00
2022-10-24T04:45:57.649Z,98375.00
2022-10-24T04:47:35.813Z,98372.00
2022-10-24T04:49:13.510Z,98381.00
2022-10-24T04:50:52.082Z,98367.00
2022-10-24T04:52:30.202Z,98370.00
2022-10-24T04:54:09.479Z,98375.00
2022-10-24T04:55:49.398Z,98387.00
2022-10-24T04:57:26.660Z,98382.00
2022-10-24T04:59:04.516Z,98374.00
2022-10-24T05:00:47.382Z,98365.00
2022-10-24T05:02:24.852Z,98371.00
2022-10-24T05:04:02.852Z,98363.00
2022-10-24T05:05:43.699Z,98372.00
2022-10-24T05:07:22.526Z,98370.00
2022-10-24T05:09:01.777Z,98377.00
2022-10-24T05:10:40.190Z,98373.00
2022-10-24T05:12:20.655Z,98375.00
2022-10-24T05:13:58.271Z,98371.00
2022-10-24T05:15:36.010Z,98372.00
2022-10-24T05:17:15.233Z,98368.00
2022-10-24T05:18:53.800Z,98363.00
2022-10-24T05:20:34.253Z,98374.00
2022-10-24T05:22:12.290Z,98366.00
2022-10-24T05:23:50.308Z,98367.00
2022-10-24T05:25:28.339Z,98356.00
2022-10-24T05:27:07.078Z,98362.00
2022-10-24T05:28:51.578Z,98371.00
2022-10-24T05:30:32.355Z,98375.00
2022-10-24T05:32:12.693Z,98371.00
2022-10-24T05:33:50.897Z,98366.00
2022-10-24T05:35:28.794Z,98370.00
2022-10-24T05:37:09.100Z,98376.00
2022-10-24T05:38:46.198Z,98380.00
2022-10-24T05:40:24.256Z,98385.00
2022-10-24T05:42:01.756Z,98372.00
2022-10-24T05:43:39.420Z,98372.00
2022-10-24T05:45:18.275Z,98367.00
2022-10-24T05:46:56.284Z,98374.00
2022-10-24T05:48:33.184Z,98380.00
2022-10-24T05:50:12.504Z,98378.00
2022-10-24T05:51:50.429Z,98379.00
2022-10-24T05:53:29.384Z,98382.00
2022-10-24T05:55:08.615Z,98390.00
2022-10-24T05:56:47.515Z,98386.00
2022-10-24T05:58:26.600Z,98391.00
2022-10-24T06:00:04.216Z,98387.00
2022-10-24T06:02:04.012Z,98391.00
2022-10-24T06:03:41.947Z,98390.00
2022-10-24T06:05:20.227Z,98394.00
2022-10-24T06:06:58.405Z,98398.00
2022-10-24T06:08:39.652Z,98396.00
2022-10-24T06:10:17.537Z,98393.00
2022-10-24T06:11:55.912Z,98397.00
2022-10-24T06:13:36.919Z,98404.00
2022-10-24T06:15:16.178Z,98401.00
2022-10-24T06:16:54.394Z,98397.00
2022-10-24T06:18:37.930Z,98401.00
2022-10-24T06:20:15.118Z,98410.00
2022-10-24T06:21:57.832Z,98409.00
2022-10-24T06:23:36.450Z,98403.00
2022-10-24T06:25:15.318Z,98407.00
2022-10-24T06:26:53.725Z,98407.00
2022-10-24T06:28:38.674Z,98413.00
2022-10-24T06:30:16.408Z,98411.00
2022-10-24T06:31:57.346Z,98416.00
2022-10-24T06:33:40.545Z,98421.00
2022-10-24T06:35:20.040Z,98412.00
2022-10-24T06:37:02.885Z,98420.00
2022-10-24T06:38:44.652Z,98415.00
2022-10-24T06:40:25.079Z,98416.00
2022-10-24T06:42:03.594Z,98420.00
2022-10-24T06:43:43.306Z,98412.00
2022-10-24T06:45:23.676Z,98420.00
2022-10-24T06:47:02.664Z,98429.00
2022-10-24T06:48:44.900Z,98418.00
2022-10-24T06:50:22.724Z,98415.00
2022-10-24T06:52:01.039Z,98418.00
2022-10-24T06:53:39.042Z,98421.00
2022-10-24T06:55:22.014Z,98416.00
2022-10-24T06:57:02.561Z,98435.00
2022-10-24T06:58:44.637Z,98431.00
2022-10-24T07:00:23.141Z,98425.00
2022-10-24T07:02:04.941Z,98438.00
2022-10-24T07:03:47.636Z,98438.00
2022-10-24T07:05:25.503Z,98434.00
2022-10-24T07:07:03.559Z,98446.00
2022-10-24T07:08:50.093Z,98438.00
2022-10-24T07:10:27.444Z,98456.00
2022-10-24T07:12:04.974Z,98449.00
2022-10-24T07:13:43.233Z,98462.00
2022-10-24T07:15:20.815Z,98455.00
2022-10-24T07:16:59.891Z,98458.00
2022-10-24T07:18:50.264Z,98449.00
2022-10-24T07:20:27.941Z,98460.00
2022-10-24T07:22:05.724Z,98465.00
2022-10-24T07:23:43.267Z,98460.00
2022-10-24T07:25:21.552Z,98455.00
2022-10-24T07:26:59.042Z,98461.00
2022-10-24T07:28:37.683Z,98464.00
2022-10-24T07:30:21.272Z,98455.00
2022-10-24T07:32:00.367Z,98456.00
2022-10-24T07:33:40.883Z,98471.00
2022-10-24T07:35:20.804Z,98463.00
2022-10-24T07:36:58.439Z,98472.00
2022-10-24T07:38:36.119Z,98458.00
2022-10-24T07:40:17.460Z,98464.00
2022-10-24T07:41:55.848Z,98465.00
2022-10-24T07:43:34.035Z,98474.00
2022-10-24T07:45:13.425Z,98475.00
2022-10-24T07:46:51.320Z,98471.00
2022-10-24T07:48:28.443Z,98459.00
2022-10-24T07:50:06.936Z,98471.00
2022-10-24T07:51:51.495Z,98463.00
2022-10-24T07:53:28.999Z,98459.00
2022-10-24T07:55:06.664Z,98472.00
2022-10-24T07:56:44.416Z,98459.00
2022-10-24T07:58:21.605Z,98464.00
2022-10-24T08:00:00.008Z,98466.00
2022-10-24T08:01:38.292Z,98476.00
2022-10-24T08:03:16.722Z,98481.00
2022-10-24T08:04:54.296Z,98474.00
2022-10-24T08:06:34.974Z,98479.00
2022-10-24T08:10:17.139Z,98492.00
2022-10-24T08:11:54.152Z,98487.00
2022-10-24T08:13:31.445Z,98488.00
2022-10-24T08:15:12.199Z,98505.00
2022-10-24T08:16:52.950Z,98496.00
2022-10-24T08:18:38.525Z,98497.00
2022-10-24T08:20:17.621Z,98498.00
2022-10-24T08:22:00.186Z,98495.00
2022-10-24T08:23:42.863Z,98498.00
2022-10-24T08:25:21.801Z,98504.00
2022-10-24T08:26:59.868Z,98495.00
2022-10-24T08:28:40.695Z,98496.00
2022-10-24T08:30:18.552Z,98493.00
2022-10-24T08:32:01.596Z,98500.00
2022-10-24T08:33:51.734Z,98502.00
2022-10-24T08:35:29.304Z,98509.00
2022-10-24T08:37:08.386Z,98508.00
2022-10-24T08:38:46.848Z,98516.00
2022-10-24T08:40:25.334Z,98504.00
2022-10-24T08:42:06.764Z,98512.00
2022-10-24T08:43:44.456Z,98512.00
2022-10-24T08:45:34.587Z,98501.00
2022-10-24T08:47:28.623Z,98502.00
2022-10-24T08:49:16.977Z,98500.00
2022-10-24T08:51:05.049Z,98506.00
2022-10-24T08:52:49.536Z,98501.00
2022-10-24T08:54:35.417Z,98531.00
2022-10-24T08:56:18.891Z,98495.00
2022-10-24T08:58:00.490Z,98506.00
2022-10-24T08:59:45.050Z,98508.00
2022-10-24T09:01:37.338Z,98493.00
2022-10-24T09:03:44.003Z,98504.00
2022-10-24T09:05:32.030Z,98492.00
2022-10-24T09:07:17.117Z,98500.00
2022-10-24T09:08:59.153Z,98504.00
2022-10-24T09:10:49.943Z,98498.00
2022-10-24T09:12:28.123Z,98492.00
2022-10-24T09:14:14.991Z,98511.00
2022-10-24T09:15:55.384Z,98510.00
2022-10-24T09:17:36.225Z,98512.00
2022-10-24T09:19:33.740Z,98518.00
2022-10-24T09:21:15.794Z,98511.00
2022-10-24T09:22:54.065Z,98512.00
2022-10-24T09:24:42.192Z,98509.00
2022-10-24T09:26:31.235Z,98515.00
2022-10-24T09:28:10.090Z,98518.00
2022-10-24T09:29:48.475Z,98513.00
2022-10-24T09:31:29.052Z,98518.00
2022-10-24T09:33:25.500Z,98514.00
2022-10-24T09:35:16.405Z,98520.00
2022-10-24T09:36:54.742Z,98524.00
2022-10-24T09:38:37.953Z,98536.00
2022-10-24T09:40:25.928Z,98521.00
2022-10-24T09:42:09.063Z,98527.00
2022-10-24T09:43:55.963Z,98521.00
2022-10-24T09:45:41.332Z,98512.00
2022-10-24T09:47:31.539Z,98531.00
2022-10-24T09:49:23.319Z,98534.00
2022-10-24T09:51:03.054Z,98545.00
2022-10-24T09:52:42.005Z,98538.00
2022-10-24T09:54:31.450Z,98542.00
2022-10-24T09:56:14.752Z,98541.00
2022-10-24T09:57:59.084Z,98538.00
2022-10-24T09:59:44.885Z,98540.00
2022-10-24T10:01:25.081Z,98537.00
2022-10-24T10:03:09.702Z,98545.00
2022-10-24T10:04:48.884Z,98551.00
2022-10-24T10:06:26.738Z,98559.00
2022-10-24T10:08:19.156Z,98554.00
2022-10-24T10:10:00.275Z,98561.00
2022-10-24T10:11:40.771Z,98563.00
2022-10-24T10:13:31.798Z,98560.00
2022-10-24T10:15:31.887Z,98556.00
2022-10-24T10:17:10.432Z,98565.00
2022-10-24T10:18:49.481Z,98553.00
2022-10-24T10:20:36.537Z,98562.00
2022-10-24T10:22:29.548Z,98555.00
2022-10-24T10:24:29.015Z,98562.00
2022-10-24T10:26:22.017Z,98562.00
2022-10-24T10:28:02.328Z,98570.00
2022-10-24T10:29:42.118Z,98571.00
2022-10-24T10:31:24.557Z,98566.00
2022-10-24T10:33:20.251Z,98576.00
2022-10-24T10:35:08.632Z,98579.00
2022-10-24T10:37:17.889Z,98581.00
2022-10-24T10:39:09.781Z,98584.00
2022-10-24T10:40:51.238Z,98584.00
2022-10-24T10:42:42.087Z,98579.00
2022-10-24T10:44:55.958Z,98598.00
2022-10-24T10:46:47.526Z,98574.00
2022-10-24T10:48:45.139Z,98590.00
2022-10-24T10:50:36.998Z,98590.00
2022-10-24T10:52:23.501Z,98608.00
2022-10-24T10:54:15.698Z,98607.00
2022-10-24T10:56:05.573Z,98597.00
2022-10-24T10:57:54.983Z,98599.00
2022-10-24T10:59:50.004Z,98610.00
2022-10-24T11:01:40.436Z,98620.00
2022-10-24T11:03:45.716Z,98620.00
2022-10-24T11:05:53.625Z,98619.00
2022-10-24T11:07:45.792Z,98614.00
2022-10-24T11:09:32.748Z,98618.00
2022-10-24T11:11:19.469Z,98618.00
2022-10-24T11:13:08.477Z,98628.00
2022-10-24T11:14:54.692Z,98625.00
2022-10-24T11:16:36.242Z,98620.00
2022-10-24T11:18:20.478Z,98629.00
2022-10-24T11:20:10.572Z,98632.00
2022-10-24T11:21:50.097Z,98629.00
2022-10-24T11:23:39.250Z,98634.00
2022-10-24T11:25:28.904Z,98622.00
2022-10-24T11:27:16.595Z,98627.00
2022-10-24T11:29:05.667Z,98626.00
2022-10-24T11:30:52.693Z,98633.00
2022-10-24T11:32:48.223Z,98624.00
2022-10-24T11:34:35.181Z,98624.00
2022-10-24T11:36:23.713Z,98621.00
2022-10-24T11:38:12.108Z,98644.00
2022-10-24T11:39:58.429Z,98642.00
2022-10-24T11:42:01.968Z,98638.00
2022-10-24T11:43:46.598Z,98640.00
2022-10-24T11:45:28.623Z,98645.00
2022-10-24T11:47:45.048Z,98643.00
2022-10-24T11:49:32.900Z,98645.00
2022-10-24T11:51:28.832Z,98638.00
2022-10-24T11:53:21.568Z,98643.00
2022-10-24T11:55:09.012Z,98640.00
2022-10-24T11:56:53.419Z,98649.00
2022-10-24T11:58:37.141Z,98639.00
2022-10-24T12:00:27.713Z,98649.00
2022-10-24T12:02:54.124Z,98646.00
2022-10-24T12:05:26.686Z,98647.00
2022-10-24T12:08:14.146Z,98656.00
2022-10-24T12:10:37.345Z,98653.00
2022-10-24T12:12:36.748Z,98650.00
2022-10-24T12:15:05.262Z,98655.00
2022-10-24T12:16:57.784Z,98652.00
2022-10-24T12:18:37.993Z,98657.00
2022-10-24T12:20:18.776Z,98650.00
2022-10-24T12:21:57.526Z,98652.00
2022-10-24T12:23:31.601Z,98651.00
2022-10-24T12:25:18.224Z,98651.00
2022-10-24T12:27:02.705Z,98652.00
2022-10-24T12:28:38.138Z,98653.00
2022-10-24T12:30:21.637Z,98658.00
2022-10-24T12:31:55.742Z,98659.00
2022-10-24T12:33:30.192Z,98654.00
2022-10-24T12:35:46.990Z,98657.00
2022-10-24T12:37:35.371Z,98656.00
2022-10-24T12:39:11.344Z,98655.00
2022-10-24T12:40:57.593Z,98657.00
2022-10-24T12:43:16.352Z,98659.00
2022-10-24T12:44:50.871Z,98659.00
2022-10-24T12:46:56.055Z,98656.00
2022-10-24T12:48:35.702Z,98663.00
2022-10-24T12:50:57.210Z,98661.00
2022-10-24T12:53:04.365Z,98659.00
2022-10-24T12:54:43.601Z,98661.00
2022-10-24T12:56:26.855Z,98651.00
2022-10-24T12:58:00.298Z,98658.00
2022-10-24T12:59:46.553Z,98653.00
2022-10-24T13:01:33.151Z,98671.00
2022-10-24T13:03:21.918Z,98660.00
2022-10-24T13:05:11.682Z,98653.00
2022-10-24T13:07:16.331Z,98662.00
2022-10-24T13:09:14.910Z,98671.00
2022-10-24T13:11:07.201Z,98666.00
2022-10-24T13:13:02.175Z,98667.00
2022-10-24T13:15:04.150Z,98661.00
2022-10-24T13:16:47.346Z,98662.00
2022-10-24T13:18:45.208Z,98662.00
2022-10-24T13:20:22.929Z,98653.00
2022-10-24T13:21:59.581Z,98662.00
2022-10-24T13:23:35.758Z,98656.00
2022-10-24T13:25:33.701Z,98653.00
2022-10-24T13:27:41.054Z,98657.00
2022-10-24T13:29:44.018Z,98657.00
2022-10-24T13:31:52.453Z,98660.00
2022-10-24T13:33:46.674Z,98654.00
2022-10-24T13:35:26.017Z,98659.00
2022-10-24T13:37:13.278Z,98657.00
2022-10-24T13:38:53.579Z,98654.00
2022-10-24T13:40:30.722Z,98657.00
2022-10-24T13:42:08.495Z,98653.00
2022-10-24T13:43:49.394Z,98659.00
2022-10-24T13:45:29.589Z,98669.00
2022-10-24T13:47:17.765Z,98665.00
2022-10-24T13:48:54.633Z,98663.00
2022-10-24T13:50:34.596Z,98666.00
2022-10-24T13:52:21.631Z,98664.00
2022-10-24T13:54:02.864Z,98660.00
2022-10-24T13:55:43.335Z,98654.00
2022-10-24T13:57:27.868Z,98666.00
2022-10-24T13:59:04.407Z,98665.00
2022-10-24T14:00:44.286Z,98664.00
2022-10-24T14:02:32.558Z,98660.00
2022-10-24T14:04:09.052Z,98661.00
2022-10-24T14:05:49.535Z,98660.00
2022-10-24T14:07:33.618Z,98670.00
2022-10-24T14:09:10.419Z,98677.00
2022-10-24T14:10:44.295Z,98667.00
2022-10-24T14:12:23.927Z,98662.00
2022-10-24T14:14:04.294Z,98661.00
2022-10-24T14:15:47.305Z,98658.00
2022-10-24T14:17:26.247Z,98656.00
2022-10-24T14:19:16.621Z,98659.00
2022-10-24T14:20:54.989Z,98663.00
2022-10-24T14:22:39.875Z,98660.00
2022-10-24T14:24:18.314Z,98661.00
2022-10-24T14:25:57.788Z,98662.00
2022-10-24T14:27:31.278Z,98672.00
2022-10-24T14:29:04.652Z,98669.00
2022-10-24T14:30:38.009Z,98665.00
2022-10-24T14:32:16.519Z,98674.00
2022-10-24T14:33:53.603Z,98664.00
2022-10-24T14:35:26.953Z,98670.00
2022-10-24T14:37:05.400Z,98668.00
2022-10-24T14:38:40.670Z,98671.00
2022-10-24T14:40:19.024Z,98667.00
2022-10-24T14:41:54.274Z,98665.00
2022-10-24T14:43:31.701Z,98663.00
2022-10-24T14:45:23.223Z,98678.00
2022-10-24T14:47:06.279Z,98674.00
2022-10-24T14:48:42.490Z,98674.00
2022-10-24T14:50:37.209Z,98674.00
2022-10-24T14:52:16.444Z,98670.00
2022-10-24T14:53:51.921Z,98673.00
2022-10-24T14:55:25.455Z,98664.00
2022-10-24T14:57:00.639Z,98681.00
2022-10-24T14:58:37.654Z,98678.00
2022-10-24T15:00:23.069Z,98679.00
2022-10-24T15:01:59.991Z,98686.00
2022-10-24T15:03:37.432Z,98682.00
2022-10-24T15:05:32.317Z,98688.00
2022-10-24T15:07:32.015Z,98697.00
2022-10-24T15:09:17.890Z,98688.00
2022-10-24T15:11:05.565Z,98682.00
2022-10-24T15:12:42.604Z,98693.00
2022-10-24T15:14:34.611Z,98695.00
2022-10-24T15:16:22.020Z,98690.00
2022-10-24T15:17:59.945Z,98688.00
2022-10-24T15:19:38.971Z,98686.00
2022-10-24T15:21:18.218Z,98687.00
2022-10-24T15:22:55.839Z,98684.00
2022-10-24T15:24:31.373Z,98682.00
2022-10-24T15:26:11.648Z,98685.00
2022-10-24T15:27:46.773Z,98667.00
2022-10-24T15:29:23.084Z,98673.00
2022-10-24T15:30:56.375Z,98685.00
2022-10-24T15:32:34.210Z,98687.00
2022-10-24T15:34:22.395Z,98683.00
2022-10-24T15:36:04.222Z,98692.00
2022-10-24T15:37:55.372Z,98694.00
2022-10-24T15:39:34.290Z,98694.00
2022-10-24T15:41:13.529Z,98689.00
2022-10-24T15:42:53.124Z,98693.00
2022-10-24T15:44:36.373Z,98690.00
2022-10-24T15:46:19.049Z,98695.00
2022-10-24T15:47:53.036Z,98695.00
2022-10-24T15:49:28.017Z,98693.00
2022-10-24T15:51:01.247Z,98701.00
2022-10-24T15:52:35.919Z,98701.00
2022-10-24T15:54:12.505Z,98696.00
2022-10-24T15:55:47.253Z,98691.00
2022-10-24T15:57:20.811Z,98699.00
2022-10-24T15:58:55.742Z,98702.00
2022-10-24T16:00:28.999Z,98704.00
2022-10-24T16:02:03.538Z,98703.00
2022-10-24T16:03:37.361Z,98702.00
2022-10-24T16:05:17.757Z,98700.00
2022-10-24T16:06:51.785Z,98705.00
2022-10-24T16:08:25.619Z,98699.00
2022-10-24T16:09:58.771Z,98703.00
2022-10-24T16:11:33.373Z,98694.00
2022-10-24T16:13:07.384Z,98702.00
2022-10-24T16:14:40.636Z,98714.00
2022-10-24T16:16:13.917Z,98708.00
2022-10-24T16:17:47.745Z,98709.00
2022-10-24T16:19:21.039Z,98712.00
2022-10-24T16:20:54.234Z,98714.00
2022-10-24T16:22:27.361Z,98716.00
2022-10-24T16:24:01.352Z,98722.00
2022-10-24T16:25:38.185Z,98716.00
2022-10-24T16:27:13.482Z,98713.00
2022-10-24T16:28:46.539Z,98725.00
2022-10-24T16:30:23.310Z,98721.00
2022-10-24T16:32:05.662Z,98717.00
2022-10-24T16:33:41.663Z,98713.00
2022-10-24T16:35:20.962Z,98710.00
2022-10-24T16:36:55.798Z,98716.00
2022-10-24T16:38:29.185Z,98716.00
2022-10-24T16:40:03.074Z,98711.00
2022-10-24T16:41:36.450Z,98721.00
2022-10-24T16:43:13.341Z,98716.00
2022-10-24T16:44:46.630Z,98720.00
2022-10-24T16:46:22.514Z,98722.00
2022-10-24T16:47:55.753Z,98724.00
2022-10-24T16:49:31.012Z,98731.00
2022-10-24T16:51:04.343Z,98728.00
2022-10-24T16:52:37.739Z,98736.00
2022-10-24T16:54:22.668Z,98736.00
2022-10-24T16:55:58.785Z,98745.00
2022-10-24T16:57:32.227Z,98745.00
2022-10-24T16:59:09.273Z,98755.00
2022-10-24T17:00:46.158Z,98750.00
2022-10-24T17:02:19.882Z,98755.00
2022-10-24T17:03:53.137Z,98743.00
2022-10-24T17:05:28.989Z,98745.00
2022-10-24T17:07:04.838Z,98751.00
2022-10-24T17:08:39.259Z,98750.00
2022-10-24T17:10:16.162Z,98749.00
2022-10-24T17:11:56.490Z,98744.00
2022-10-24T17:13:30.626Z,98753.00
2022-10-24T17:15:08.174Z,98755.00
2022-10-24T17:16:42.643Z,98760.00
2022-10-24T17:18:16.465Z,98765.00
2022-10-24T17:19:50.997Z,98765.00
2022-10-24T17:21:27.704Z,98768.00
2022-10-24T17:23:04.361Z,98764.00
2022-10-24T17:24:50.023Z,98763.00
2022-10-24T17:26:23.788Z,98760.00
2022-10-24T17:27:57.417Z,98762.00
2022-10-24T17:29:34.294Z,98766.00
2022-10-24T17:31:09.903Z,98772.00
2022-10-24T17:32:43.828Z,98771.00
2022-10-24T17:34:18.402Z,98764.00
2022-10-24T17:35:57.505Z,98768.00
2022-10-24T17:37:47.900Z,98768.00
2022-10-24T17:39:26.846Z,98763.00
2022-10-24T17:41:10.572Z,98778.00
2022-10-24T17:42:47.634Z,98772.00
2022-10-24T17:44:22.113Z,98771.00
2022-10-24T17:45:57.540Z,98772.00
2022-10-24T17:47:32.331Z,98776.00
2022-10-24T17:49:05.584Z,98770.00
2022-10-24T17:50:39.071Z,98777.00
2022-10-24T17:52:16.908Z,98773.00
2022-10-24T17:53:50.285Z,98767.00
2022-10-24T17:55:44.920Z,98767.00
2022-10-24T17:57:19.527Z,98770.00
2022-10-24T17:58:53.061Z,98767.00
2022-10-24T18:00:26.470Z,98784.00
2022-10-24T18:02:02.676Z,98779.00
2022-10-24T18:03:37.400Z,98774.00
2022-10-24T18:05:10.889Z,98778.00
2022-10-24T18:06:54.767Z,98769.00
2022-10-24T18:08:28.918Z,98771.00
2022-10-24T18:10:02.509Z,98769.00
2022-10-24T18:11:36.103Z,98766.00
2022-10-24T18:13:12.187Z,98781.00
2022-10-24T18:14:45.880Z,98780.00
2022-10-24T18:16:20.864Z,98787.00
2022-10-24T18:17:54.181Z,98791.00
2022-10-24T18:19:29.057Z,98784.00
2022-10-24T18:21:10.347Z,98785.00
2022-10-24T18:22:45.506Z,98791.00
2022-10-24T18:24:19.313Z,98780.00
2022-10-24T18:25:52.810Z,98783.00
2022-10-24T18:27:26.034Z,98788.00
2022-10-24T18:28:59.362Z,98791.00
2022-10-24T18:30:33.031Z,98804.00
2022-10-24T18:32:06.634Z,98920.00
2022-10-24T18:33:40.889Z,98914.00
2022-10-24T18:35:16.323Z,98888.00
2022-10-24T18:36:49.534Z,98882.00
2022-10-24T18:38:22.739Z,98883.00
2022-10-24T18:39:57.139Z,98869.00
2022-10-24T18:41:42.963Z,98880.00
2022-10-24T18:43:18.908Z,98856.00
2022-10-24T18:44:53.319Z,98853.00
2022-10-24T18:46:38.297Z,98846.00
2022-10-24T18:48:12.953Z,98847.00
2022-10-24T18:49:47.501Z,98876.00
2022-10-24T18:51:34.445Z,98870.00
2022-10-24T18:53:22.138Z,98878.00
2022-10-24T18:55:05.946Z,98866.00
2022-10-24T18:56:40.605Z,98848.00
2022-10-24T18:58:16.232Z,98851.00
2022-10-24T18:59:49.964Z,98853.00
2022-10-24T19:01:37.914Z,98854.00
2022-10-24T19:03:25.509Z,98835.00
2022-10-24T19:05:14.984Z,98840.00
2022-10-24T19:06:56.279Z,98832.00
2022-10-24T19:08:30.666Z,98845.00
2022-10-24T19:10:04.388Z,98855.00
2022-10-24T19:11:38.426Z,98853.00
2022-10-24T19:13:12.564Z,98840.00
2022-10-24T19:14:46.873Z,98822.00
2022-10-24T19:16:28.621Z,98836.00
2022-10-24T19:18:05.386Z,98853.00
2022-10-24T19:19:39.517Z,98852.00
2022-10-24T19:21:24.416Z,98840.00
2022-10-24T19:23:04.754Z,98841.00
2022-10-24T19:24:38.043Z,98825.00
2022-10-24T19:26:13.402Z,98848.00
2022-10-24T19:27:49.262Z,98884.00
2022-10-24T19:29:22.637Z,98872.00
2022-10-24T19:30:57.173Z,98865.00
2022-10-24T19:32:30.383Z,98866.00
2022-10-24T19:34:03.801Z,98854.00
2022-10-24T19:35:40.324Z,98857.00
2022-10-24T19:37:15.640Z,98856.00
2022-10-24T19:38:56.404Z,98849.00
2022-10-24T19:40:29.691Z,98838.00
2022-10-24T19:42:02.897Z,98825.00
2022-10-24T19:43:36.075Z,98855.00
2022-10-24T19:45:10.114Z,98846.00
2022-10-24T19:46:43.333Z,98851.00
2022-10-24T19:48:16.882Z,98856.00
2022-10-24T19:49:50.345Z,98848.00
2022-10-24T19:51:25.149Z,98858.00
2022-10-24T19:52:58.245Z,98847.00
2022-10-24T19:54:32.730Z,98832.00
2022-10-24T19:56:06.847Z,98835.00
2022-10-24T19:57:39.988Z,98838.00
2022-10-24T19:59:13.181Z,98833.00